Annandale, Virginia
Current Conditions -  °F | °C
As of 7:03 AM on Monday 26 Jan 2015 (Local Time) from KDAA Reporting Station
Light Rain Light Rain  
Wind Chill: 33°   Ceiling: 700
Heat Index: 37°   Visibility: 6mi
Dew Point: 36°   Wind: 6mph
Humidity: 93%   Direction: NA
Pressure: 29.8"   Gusts: NA
Location:  38.83°N, 77.19°W
Report Text: KDAA 261203Z AUTO VRB05KT 6SM R32/5000FT -RA BR OVC007 03/02 A2980 RMK AO2
Loading
Personal Weather Stations






























Interactive Weather Map New forecast layout! Learn more

10-Day Weather Forecast

Advertisements
Track Severe Weather on mobile